Time;durP1;ratioP1;P1;durP2;ratioP2;P2;SDS_P1;SDS_P2;PMS_P1;PMS_P2;Temp;Humidity;BMP_temperature;BMP_pressure;BME280_temperature;BME280_humidity;BME280_pressure;Samples;Min_cycle;Max_cycle;Signal;HPM_P1;HPM_P2
2023/11/11 00:02:26;;;;;;;;;;;;;;;5.40;100.00;98102.34;6245084;23;19912;-92
2023/11/11 00:04:51;;;;;;;;;;;;;;;5.36;100.00;98107.81;6244583;23;20068;-91
2023/11/11 00:07:17;;;;;;;;;;;;;;;5.28;100.00;98110.81;6245036;23;20319;-91
2023/11/11 00:09:42;;;;;;;;;;;;;;;5.25;100.00;98114.47;6245282;23;19919;-89
2023/11/11 00:12:07;;;;;;;;;;;;;;;5.22;100.00;98127.72;6244909;23;20274;-92
2023/11/11 00:14:36;;;;;;;;;;;;;;;5.20;100.00;98129.59;6245335;23;19922;-88
2023/11/11 00:17:01;;;;;;;;;;;;;;;5.14;100.00;98140.38;6245502;23;20398;-90
2023/11/11 00:19:27;;;;;;;;;;;;;;;5.09;100.00;98137.97;6244695;23;19911;-92
2023/11/11 00:21:54;;;;;;;;;;;;;;;5.08;100.00;98153.78;6244208;23;19927;-88
2023/11/11 00:24:20;;;;;;;;;;;;;;;5.04;100.00;98154.84;6218829;23;19911;-93
2023/11/11 00:26:48;;;;;;;;;;;;;;;5.00;100.00;98161.16;6218623;23;20037;-92
2023/11/11 00:29:13;;;;;;;;;;;;;;;4.99;100.00;98162.09;6218221;23;19919;-92
2023/11/11 00:31:39;;;;;;;;;;;;;;;4.98;100.00;98170.88;6219100;23;20001;-92
2023/11/11 00:34:06;;;;;;;;;;;;;;;4.93;100.00;98168.47;6218319;23;19916;-88
2023/11/11 00:36:31;;;;;;;;;;;;;;;4.92;100.00;98172.00;6243418;23;19954;-92
2023/11/11 00:38:56;;;;;;;;;;;;;;;4.89;100.00;98178.25;6247490;22;19916;-86
2023/11/11 00:41:22;;;;;;;;;;;;;;;5.74;100.00;98176.06;6275691;22;19912;-90
2023/11/11 00:43:47;;;;;;;;;;;;;;;6.17;100.00;98187.09;6275508;22;20338;-90
2023/11/11 00:46:20;;;;;;;;;;;;;;;6.34;100.00;98195.00;6276961;22;20256;-95
2023/11/11 00:48:45;;;;;;;;;;;;;;;6.46;100.00;98192.66;6275878;22;19996;-91
2023/11/11 00:51:10;;;;;;;;;;;;;;;6.59;100.00;98204.28;6274636;22;19911;-87
2023/11/11 00:53:36;;;;;;;;;;;;;;;6.73;100.00;98209.69;6275463;22;20239;-90
2023/11/11 00:56:02;;;;;;;;;;;;;;;6.94;100.00;98217.38;6247891;22;19965;-90
2023/11/11 00:58:27;;;;;;;;;;;;;;;7.14;100.00;98218.94;6275894;22;20235;-91
2023/11/11 01:00:55;;;;;;;;;;;;;;;7.40;100.00;98214.91;6249084;22;20528;-90
2023/11/11 01:03:20;;;;;;;;;;;;;;;7.68;100.00;98228.34;6248774;22;19950;-93
2023/11/11 01:05:45;;;;;;;;;;;;;;;7.89;100.00;98227.13;6247859;22;19915;-91
2023/11/11 01:08:11;;;;;;;;;;;;;;;8.04;100.00;98235.09;6275312;22;20454;-92
2023/11/11 01:10:37;;;;;;;;;;;;;;;8.21;100.00;98249.97;6276202;22;20354;-92
2023/11/11 01:13:06;;;;;;;;;;;;;;;8.32;100.00;98255.47;6248528;22;19915;-92
2023/11/11 01:15:31;;;;;;;;;;;;;;;8.43;100.00;98253.09;6276698;22;19993;-90
2023/11/11 01:17:57;;;;;;;;;;;;;;;8.51;100.00;98263.19;6279456;22;19939;-89
2023/11/11 01:20:22;;;;;;;;;;;;;;;8.60;100.00;98269.72;6278286;22;19922;-94
2023/11/11 01:22:47;;;;;;;;;;;;;;;8.68;100.00;98267.47;6280273;22;19925;-90
2023/11/11 01:25:13;;;;;;;;;;;;;;;8.77;100.00;98281.94;6278080;22;20339;-87
2023/11/11 01:27:40;;;;;;;;;;;;;;;8.84;100.00;98278.84;6249762;22;19986;-90
2023/11/11 01:30:06;;;;;;;;;;;;;;;8.92;100.00;98273.09;6249974;22;19998;-91
2023/11/11 01:32:32;;;;;;;;;;;;;;;8.99;100.00;98282.34;6250536;22;20281;-92
2023/11/11 01:34:57;;;;;;;;;;;;;;;8.31;100.00;98281.03;6276414;22;19997;-93
2023/11/11 01:37:22;;;;;;;;;;;;;;;7.55;100.00;98289.63;6250230;22;19915;-90
2023/11/11 01:39:48;;;;;;;;;;;;;;;7.40;100.00;98295.72;6250479;22;19915;-83
2023/11/11 01:42:15;;;;;;;;;;;;;;;6.81;100.00;98305.81;6278225;22;20236;-90
2023/11/11 01:44:40;;;;;;;;;;;;;;;6.10;100.00;98299.66;6249022;22;19915;-90
2023/11/11 01:47:15;;;;;;;;;;;;;;;5.70;100.00;98292.78;6250699;22;20293;-91
2023/11/11 01:49:41;;;;;;;;;;;;;;;5.45;100.00;98286.88;6276286;22;19922;-91
2023/11/11 01:52:07;;;;;;;;;;;;;;;5.39;100.00;98294.19;6277892;22;19912;-90
2023/11/11 01:54:36;;;;;;;;;;;;;;;5.27;100.00;98299.06;6251564;22;20002;-93
2023/11/11 01:57:03;;;;;;;;;;;;;;;5.13;100.00;98290.97;6250689;22;19946;-96
2023/11/11 01:59:29;;;;;;;;;;;;;;;5.02;100.00;98296.66;6250812;22;20296;-90
2023/11/11 06:18:41;;;;;;;;;;;;;;;8.26;100.00;98635.81;6261065;22;19934;-87
2023/11/11 06:21:08;;;;;;;;;;;;;;;8.28;100.00;98644.50;6277341;22;19962;-91
2023/11/11 06:23:33;;;;;;;;;;;;;;;8.28;100.00;98647.16;6276626;22;20351;-92
2023/11/11 06:25:59;;;;;;;;;;;;;;;8.34;100.00;98658.25;6249984;22;19923;-93
2023/11/11 06:28:24;;;;;;;;;;;;;;;8.36;100.00;98674.03;6249789;22;19911;-94
2023/11/11 06:31:19;;;;;;;;;;;;;;;;;;;;;
2023/11/11 06:37:25;;;;;;;;;;;;;;;;;;;;;
2023/11/11 06:39:50;;;;;;;;;;;;;;;8.40;100.00;98680.84;6067507;23;20337;-87
2023/11/11 06:42:15;;;;;;;;;;;;;;;8.38;100.00;98682.72;6228328;22;19939;-92
2023/11/11 06:48:17;;;;;;;;;;;;;;;;;;;;;
2023/11/11 06:50:45;;;;;;;;;;;;;;;8.42;100.00;98700.06;6153735;23;20011;-91
2023/11/11 07:00:20;;;;;;;;;;;;;;;8.45;100.00;98692.03;6065697;23;19957;-95
2023/11/11 07:03:04;;;;;;;;;;;;;;;8.48;100.00;98694.50;6054641;23;19917;-94
2023/11/11 07:05:29;;;;;;;;;;;;;;;8.48;100.00;98694.50;6138436;23;19917;-91
2023/11/11 07:08:05;;;;;;;;;;;;;;;8.51;100.00;98704.06;6161431;23;19919;-91
2023/11/11 07:10:30;;;;;;;;;;;;;;;8.52;100.00;98706.63;6158609;23;19984;-92
2023/11/11 07:12:56;;;;;;;;;;;;;;;8.54;100.00;98709.19;6129562;23;19935;-90
2023/11/11 07:15:21;;;;;;;;;;;;;;;8.58;100.00;98705.44;6157363;23;19992;-92
2023/11/11 07:24:12;;;;;;;;;;;;;;;8.60;100.00;98715.94;6042518;23;19918;-95
2023/11/11 07:26:49;;;;;;;;;;;;;;;8.61;100.00;98715.84;6048995;23;19914;-94
2023/11/11 07:29:15;;;;;;;;;;;;;;;8.64;100.00;98720.13;6226957;23;19957;-91
2023/11/11 07:36:52;;;;;;;;;;;;;;;8.65;100.00;98732.41;6247021;23;19924;-94
2023/11/11 07:39:19;;;;;;;;;;;;;;;8.63;100.00;98727.22;6219212;23;19946;-92
2023/11/11 07:41:49;;;;;;;;;;;;;;;8.63;100.00;98732.50;6219597;23;20299;-92
2023/11/11 07:44:14;;;;;;;;;;;;;;;8.67;100.00;98735.81;6219013;23;20243;-91
2023/11/11 07:46:39;;;;;;;;;;;;;;;8.69;100.00;98737.44;6244206;23;20112;-88
2023/11/11 07:49:05;;;;;;;;;;;;;;;8.70;100.00;98746.22;6245192;23;19965;-91
2023/11/11 07:51:32;;;;;;;;;;;;;;;8.72;100.00;98747.84;6219039;23;19919;-91
2023/11/11 07:53:57;;;;;;;;;;;;;;;8.76;100.00;98745.91;6245784;23;19915;-91
2023/11/11 07:56:24;;;;;;;;;;;;;;;8.75;100.00;98752.13;6218713;23;19946;-92
2023/11/11 07:58:53;;;;;;;;;;;;;;;8.76;100.00;98745.91;6219283;23;19912;-92
2023/11/11 08:01:18;;;;;;;;;;;;;;;8.05;100.00;98753.84;6219105;23;20167;-93
2023/11/11 08:03:44;;;;;;;;;;;;;;;6.69;100.00;98760.94;6218181;23;20227;-87
2023/11/11 08:54:15;;;;;;;;;;;;;;;4.93;100.00;98831.75;6246394;22;19973;-94
2023/11/11 08:56:44;;;;;;;;;;;;;;;5.87;100.00;98838.81;6238019;22;20334;-93
2023/11/11 08:59:14;;;;;;;;;;;;;;;6.45;100.00;98841.78;6277821;22;20048;-93
2023/11/11 09:01:39;;;;;;;;;;;;;;;6.76;100.00;98839.66;6249181;22;20380;-92
2023/11/11 09:04:11;;;;;;;;;;;;;;;7.00;100.00;98853.53;6251778;22;19986;-94
2023/11/11 09:06:36;;;;;;;;;;;;;;;7.19;100.00;98858.88;6254621;22;19919;-92
2023/11/11 09:09:03;;;;;;;;;;;;;;;7.35;100.00;98857.25;6217920;23;19922;-91
2023/11/11 09:14:33;;;;;;;;;;;;;;;7.68;100.00;98846.13;6243382;22;20296;-94
2023/11/11 09:17:06;;;;;;;;;;;;;;;7.79;100.00;98854.41;6249656;22;19919;-94
2023/11/11 09:19:31;;;;;;;;;;;;;;;7.87;100.00;98855.84;6249123;22;19915;-94
2023/11/11 09:22:05;;;;;;;;;;;;;;;7.92;100.00;98853.84;6247893;22;19915;-94
2023/11/11 09:24:46;;;;;;;;;;;;;;;;;;;;;
2023/11/11 09:27:12;;;;;;;;;;;;;;;8.05;100.00;98860.25;6278578;22;20309;-92
2023/11/11 09:29:38;;;;;;;;;;;;;;;8.12;100.00;98863.44;6257681;22;19922;-95
2023/11/11 09:32:04;;;;;;;;;;;;;;;8.16;100.00;98873.78;6249011;22;19943;-91
2023/11/11 09:34:29;;;;;;;;;;;;;;;8.21;100.00;98872.72;6279623;22;19911;-91
2023/11/11 09:37:07;;;;;;;;;;;;;;;8.27;100.00;98869.78;6281373;22;20330;-95
2023/11/11 09:39:33;;;;;;;;;;;;;;;8.33;100.00;98874.78;6250508;22;19919;-94
2023/11/11 09:41:58;;;;;;;;;;;;;;;8.36;100.00;98870.19;6251410;22;20353;-94
2023/11/11 09:44:24;;;;;;;;;;;;;;;8.37;100.00;98876.31;6250686;22;19915;-91
2023/11/11 09:47:10;;;;;;;;;;;;;;;8.44;100.00;98871.63;6277258;22;19912;-95
2023/11/11 09:49:36;;;;;;;;;;;;;;;8.48;100.00;98878.47;6250372;22;19960;-95
2023/11/11 09:52:02;;;;;;;;;;;;;;;8.50;100.00;98874.84;6277876;22;19950;-93
2023/11/11 09:57:20;;;;;;;;;;;;;;;;;;;;;
2023/11/11 10:05:38;;;;;;;;;;;;;;;8.69;100.00;98866.00;6124729;23;19925;-94
2023/11/11 10:08:04;;;;;;;;;;;;;;;8.72;100.00;98868.50;6230945;22;19911;-93
2023/11/11 10:13:06;;;;;;;;;;;;;;;8.77;100.00;98863.81;6242766;22;20641;-88
2023/11/11 10:15:31;;;;;;;;;;;;;;;8.81;100.00;98864.53;6250180;22;20002;-89
2023/11/11 10:18:06;;;;;;;;;;;;;;;8.83;100.00;98863.53;6276859;22;20334;-93
2023/11/11 10:20:31;;;;;;;;;;;;;;;8.23;100.00;98865.56;6250015;22;19911;-87
2023/11/11 10:22:58;;;;;;;;;;;;;;;6.89;100.00;98867.16;6275344;22;19917;-91
2023/11/11 10:25:23;;;;;;;;;;;;;;;6.34;100.00;98863.25;6276738;22;19911;-88
2023/11/11 10:28:01;;;;;;;;;;;;;;;6.16;100.00;98861.38;6276894;22;20030;-92
2023/11/11 10:30:26;;;;;;;;;;;;;;;5.96;100.00;98862.13;6249731;22;19985;-90
2023/11/11 10:32:52;;;;;;;;;;;;;;;5.84;100.00;98863.47;6276642;22;19934;-90
2023/11/11 10:35:19;;;;;;;;;;;;;;;5.73;100.00;98855.13;6276790;22;19915;-87
2023/11/11 10:37:46;;;;;;;;;;;;;;;5.64;100.00;98851.91;6248520;22;20360;-93
2023/11/11 10:40:17;;;;;;;;;;;;;;;5.52;100.00;98859.38;6249940;22;20296;-91
2023/11/11 10:42:47;;;;;;;;;;;;;;;5.49;100.00;98860.38;6250066;22;19911;-92
2023/11/11 10:45:15;;;;;;;;;;;;;;;5.45;100.00;98867.50;6249462;22;19915;-91
2023/11/11 10:50:40;;;;;;;;;;;;;;;5.32;100.00;98860.97;6274336;22;19969;-91
2023/11/11 10:53:06;;;;;;;;;;;;;;;5.28;100.00;98859.38;6248528;22;19951;-89
2023/11/11 10:55:33;;;;;;;;;;;;;;;5.22;100.00;98865.72;6250628;22;19944;-89
2023/11/11 10:57:59;;;;;;;;;;;;;;;5.23;100.00;98869.19;6250018;22;19911;-89
2023/11/11 11:00:26;;;;;;;;;;;;;;;5.22;100.00;98868.34;6249383;22;19916;-92
2023/11/11 11:02:52;;;;;;;;;;;;;;;5.18;100.00;98865.88;6249183;22;19917;-86
2023/11/11 11:05:22;;;;;;;;;;;;;;;5.14;100.00;98864.25;6276627;22;19925;-86
2023/11/11 11:07:52;;;;;;;;;;;;;;;5.04;100.00;98863.72;6275731;22;19923;-91
2023/11/11 11:10:46;;;;;;;;;;;;;;;5.04;100.00;98859.34;6249368;22;19950;-94
2023/11/11 11:13:12;;;;;;;;;;;;;;;5.07;100.00;98868.88;6219436;23;19924;-90
2023/11/11 11:15:44;;;;;;;;;;;;;;;5.07;100.00;98866.25;6233772;23;19920;-91
2023/11/11 11:18:52;;;;;;;;;;;;;;;5.04;100.00;98861.09;6219087;23;20338;-92
2023/11/11 11:21:02;;;;;;;;;;;;;;;5.03;100.00;98857.63;6235092;23;20352;-92
2023/11/11 11:23:34;;;;;;;;;;;;;;;4.99;100.00;98855.16;6244605;23;19919;-89
2023/11/11 11:29:40;;;;;;;;;;;;;;;4.97;100.00;98855.22;6187152;23;20375;-93
2023/11/11 11:40:06;;;;;;;;;;;;;;;;;;;;;
2023/11/11 11:42:41;;;;;;;;;;;;;;;6.80;100.00;98854.41;6276701;22;19978;-90
2023/11/11 11:45:11;;;;;;;;;;;;;;;6.99;100.00;98852.69;6228235;22;19919;-92
2023/11/11 11:54:12;;;;;;;;;;;;;;;7.54;100.00;98853.81;6197125;22;19965;-92
2023/11/11 11:56:41;;;;;;;;;;;;;;;7.62;100.00;98847.25;6277499;22;19915;-94
2023/11/11 11:59:18;;;;;;;;;;;;;;;7.77;100.00;98850.09;6248857;22;19950;-92
2023/11/11 12:01:47;;;;;;;;;;;;;;;7.85;100.00;98853.28;6248210;22;19946;-90
2023/11/11 12:04:33;;;;;;;;;;;;;;;7.98;100.00;98840.38;6257197;22;19924;-90
2023/11/11 12:09:55;;;;;;;;;;;;;;;8.14;100.00;98830.78;6212476;23;19916;-93
2023/11/11 12:12:23;;;;;;;;;;;;;;;8.22;100.00;98825.13;6188599;23;19911;-92
2023/11/11 12:14:50;;;;;;;;;;;;;;;8.30;100.00;98822.97;6234142;22;19915;-92
2023/11/11 12:17:48;;;;;;;;;;;;;;;8.35;100.00;98818.31;6254778;23;20380;-91
2023/11/11 12:25:47;;;;;;;;;;;;;;;8.56;100.00;98801.53;6268183;22;20029;-92
2023/11/11 12:28:16;;;;;;;;;;;;;;;8.59;100.00;98801.38;6276645;22;20005;-94
2023/11/11 12:33:31;;;;;;;;;;;;;;;8.67;100.00;98796.56;6275998;22;19919;-95
2023/11/11 12:36:07;;;;;;;;;;;;;;;8.72;100.00;98799.81;6189502;22;19921;-94
2023/11/11 12:38:38;;;;;;;;;;;;;;;8.76;100.00;98793.47;6249039;22;19994;-94
2023/11/11 12:41:09;;;;;;;;;;;;;;;8.80;100.00;98789.72;6277676;22;19941;-92
2023/11/11 12:43:54;;;;;;;;;;;;;;;8.84;100.00;98787.75;6277584;22;19990;-93
2023/11/11 12:46:20;;;;;;;;;;;;;;;8.90;100.00;98793.59;6250670;22;20301;-93
2023/11/11 12:48:49;;;;;;;;;;;;;;;8.92;100.00;98790.88;6249106;22;19920;-94
2023/11/11 12:54:41;;;;;;;;;;;;;;;6.57;100.00;98803.56;6179379;23;20240;-92
2023/11/11 12:57:11;;;;;;;;;;;;;;;6.25;100.00;98797.84;6282444;22;19915;-94
2023/11/11 12:59:37;;;;;;;;;;;;;;;6.08;100.00;98797.69;6274376;22;19911;-94
2023/11/11 13:02:06;;;;;;;;;;;;;;;5.94;100.00;98788.56;6248205;23;19915;-93
2023/11/11 13:04:31;;;;;;;;;;;;;;;5.87;100.00;98800.25;6243742;23;19920;-94
2023/11/11 13:07:33;;;;;;;;;;;;;;;5.81;100.00;98798.69;6249023;23;19912;-94
2023/11/11 13:13:33;;;;;;;;;;;;;;;5.63;100.00;98800.28;6202204;22;19918;-91
2023/11/11 13:16:13;;;;;;;;;;;;;;;5.57;100.00;98790.00;6249442;22;19916;-95
2023/11/11 13:18:39;;;;;;;;;;;;;;;5.51;100.00;98786.75;6247459;23;20319;-91
2023/11/11 13:21:08;;;;;;;;;;;;;;;5.48;100.00;98790.34;6250125;23;19911;-92
2023/11/11 13:23:34;;;;;;;;;;;;;;;5.45;100.00;98790.44;6246078;23;19915;-90
2023/11/11 13:28:31;;;;;;;;;;;;;;;5.37;100.00;98792.50;6266082;22;19931;-94
2023/11/11 13:30:57;;;;;;;;;;;;;;;5.27;100.00;98787.59;6277623;22;19918;-88
2023/11/11 13:33:34;;;;;;;;;;;;;;;5.25;100.00;98788.59;6253258;22;19915;-94
2023/11/11 13:36:16;;;;;;;;;;;;;;;5.17;100.00;98778.34;6249371;22;19912;-94
2023/11/11 13:38:42;;;;;;;;;;;;;;;5.15;100.00;98781.94;6276786;22;19922;-90
2023/11/11 13:41:08;;;;;;;;;;;;;;;5.12;100.00;98777.66;6249982;22;19911;-90
2023/11/11 13:43:33;;;;;;;;;;;;;;;5.09;100.00;98777.78;6278104;22;19916;-91
2023/11/11 13:49:04;;;;;;;;;;;;;;;5.06;100.00;98785.78;6251350;22;19930;-86
2023/11/11 13:51:52;;;;;;;;;;;;;;;5.12;100.00;98785.53;6277540;22;19915;-94
2023/11/11 13:54:17;;;;;;;;;;;;;;;5.07;100.00;98779.59;6275877;22;19917;-92
2023/11/11 13:57:01;;;;;;;;;;;;;;;;;;;;;
2023/11/11 13:59:27;;;;;;;;;;;;;;;5.00;100.00;98778.13;6277366;22;20006;-91
2023/11/11 14:02:08;;;;;;;;;;;;;;;;;;;;;
2023/11/11 14:04:33;;;;;;;;;;;;;;;4.93;100.00;98788.00;6277963;22;20293;-89
2023/11/11 14:10:15;;;;;;;;;;;;;;;;;;;;;
2023/11/11 14:13:32;;;;;;;;;;;;;;;;;;;;;
2023/11/11 14:16:09;;;;;;;;;;;;;;;6.33;100.00;98797.53;6266681;22;20285;-93
2023/11/11 14:18:45;;;;;;;;;;;;;;;6.68;100.00;98793.44;6277288;22;19919;-92
2023/11/11 14:24:12;;;;;;;;;;;;;;;7.12;100.00;98800.34;6255011;22;19915;-94
2023/11/11 14:27:07;;;;;;;;;;;;;;;;;;;;;
2023/11/11 14:29:56;;;;;;;;;;;;;;;7.43;100.00;98806.84;6261633;22;19998;-94
2023/11/11 14:32:21;;;;;;;;;;;;;;;7.54;100.00;98807.22;6274093;22;20338;-89
2023/11/11 14:35:04;;;;;;;;;;;;;;;7.62;100.00;98802.44;6250442;22;19912;-94
2023/11/11 14:37:31;;;;;;;;;;;;;;;7.72;100.00;98816.06;6275905;22;19915;-90
2023/11/11 14:42:37;;;;;;;;;;;;;;;7.91;100.00;98817.81;6275617;22;19920;-94
2023/11/11 14:45:05;;;;;;;;;;;;;;;7.98;100.00;98827.19;6277018;22;19912;-92
2023/11/11 14:47:31;;;;;;;;;;;;;;;8.08;100.00;98827.59;6250278;22;20237;-85
2023/11/11 14:49:56;;;;;;;;;;;;;;;8.17;100.00;98827.16;6277958;22;19951;-89
2023/11/11 14:52:21;;;;;;;;;;;;;;;8.25;100.00;98834.66;6250454;22;20311;-90
2023/11/11 14:54:46;;;;;;;;;;;;;;;8.31;100.00;98829.09;6248603;22;19980;-89
2023/11/11 14:57:14;;;;;;;;;;;;;;;8.36;100.00;98830.59;6278194;22;19915;-93
2023/11/11 15:03:05;;;;;;;;;;;;;;;8.49;100.00;98830.88;6160203;23;19913;-93
2023/11/11 15:05:41;;;;;;;;;;;;;;;8.56;100.00;98834.06;6128406;23;20022;-92
2023/11/11 15:08:09;;;;;;;;;;;;;;;8.61;100.00;98837.31;6238807;22;19911;-94
2023/11/11 15:10:37;;;;;;;;;;;;;;;8.66;100.00;98837.09;6276597;22;19950;-92
2023/11/11 15:13:03;;;;;;;;;;;;;;;8.71;100.00;98845.63;6248384;22;20243;-91
2023/11/11 15:15:28;;;;;;;;;;;;;;;8.77;100.00;98847.97;6276737;22;19916;-92
2023/11/11 15:17:54;;;;;;;;;;;;;;;8.79;100.00;98856.69;6250006;22;19960;-87
2023/11/11 15:20:21;;;;;;;;;;;;;;;8.83;100.00;98842.38;6250312;22;19911;-91
2023/11/11 15:23:14;;;;;;;;;;;;;;;8.84;100.00;98846.75;6255176;22;19915;-96
2023/11/11 15:26:06;;;;;;;;;;;;;;;8.89;100.00;98836.78;6152680;23;19917;-93
2023/11/11 15:28:32;;;;;;;;;;;;;;;8.94;100.00;98846.28;6249788;22;19912;-91
2023/11/11 15:30:57;;;;;;;;;;;;;;;8.70;100.00;98847.44;6249191;22;19919;-90
2023/11/11 15:33:25;;;;;;;;;;;;;;;7.20;100.00;98842.16;6276731;22;19911;-90
2023/11/11 15:35:50;;;;;;;;;;;;;;;6.61;100.00;98844.63;6276307;22;19922;-91
2023/11/11 15:38:19;;;;;;;;;;;;;;;6.30;100.00;98845.91;6274561;22;19911;-93
2023/11/11 15:40:58;;;;;;;;;;;;;;;;;;;;;
2023/11/11 15:43:25;;;;;;;;;;;;;;;5.96;100.00;98854.22;6246182;23;19986;-91
2023/11/11 15:45:55;;;;;;;;;;;;;;;5.87;100.00;98865.09;6220858;23;20002;-93
2023/11/11 15:48:20;;;;;;;;;;;;;;;5.80;100.00;98865.31;6248770;23;19923;-87
2023/11/11 15:50:46;;;;;;;;;;;;;;;5.70;100.00;98874.50;6248457;23;19907;-90
2023/11/11 15:53:12;;;;;;;;;;;;;;;5.62;100.00;98874.78;6244142;23;19922;-88
2023/11/11 15:55:37;;;;;;;;;;;;;;;5.64;100.00;98874.72;6218505;23;19907;-85
2023/11/11 15:58:05;;;;;;;;;;;;;;;5.54;100.00;98882.09;6245357;23;19951;-88
2023/11/11 16:00:33;;;;;;;;;;;;;;;5.48;100.00;98879.69;6218798;23;19918;-88
2023/11/11 16:02:58;;;;;;;;;;;;;;;5.52;100.00;98875.16;6218878;23;19912;-88
2023/11/11 16:05:25;;;;;;;;;;;;;;;5.41;100.00;98875.56;6218552;23;19923;-91
2023/11/11 16:07:50;;;;;;;;;;;;;;;5.39;100.00;98878.25;6243978;23;19912;-89
2023/11/11 16:10:16;;;;;;;;;;;;;;;5.33;100.00;98885.47;6218857;23;19912;-88
2023/11/11 16:12:42;;;;;;;;;;;;;;;5.30;100.00;98880.31;6245281;23;19970;-91
2023/11/11 16:15:19;;;;;;;;;;;;;;;5.27;100.00;98890.03;6245104;23;19919;-92
2023/11/11 16:17:44;;;;;;;;;;;;;;;5.22;100.00;98891.13;6248083;23;19995;-89
2023/11/11 16:20:11;;;;;;;;;;;;;;;5.20;100.00;98891.19;6245512;23;20318;-92
2023/11/11 16:22:37;;;;;;;;;;;;;;;5.15;100.00;98887.84;6244081;23;19939;-91
2023/11/11 16:25:25;;;;;;;;;;;;;;;5.14;100.00;98888.78;6219346;23;19938;-93
2023/11/11 16:27:53;;;;;;;;;;;;;;;5.11;100.00;98891.50;6203638;23;20330;-91
2023/11/11 16:30:18;;;;;;;;;;;;;;;5.02;100.00;98897.91;6218574;23;20327;-91
2023/11/11 16:32:45;;;;;;;;;;;;;;;5.01;100.00;98888.34;6245719;23;19919;-87
2023/11/11 16:35:13;;;;;;;;;;;;;;;5.00;100.00;98899.75;6218788;23;19912;-90
2023/11/11 16:37:41;;;;;;;;;;;;;;;5.06;100.00;98896.06;6216746;23;19911;-90
2023/11/11 16:40:11;;;;;;;;;;;;;;;6.02;100.00;98908.41;6245430;23;19919;-91
2023/11/11 16:42:37;;;;;;;;;;;;;;;6.56;100.00;98912.41;6218550;23;19915;-90
2023/11/11 16:45:11;;;;;;;;;;;;;;;6.86;100.00;98920.84;6218465;23;20236;-90
2023/11/11 16:47:36;;;;;;;;;;;;;;;7.07;100.00;98919.06;6219856;23;19912;-91
2023/11/11 16:50:03;;;;;;;;;;;;;;;7.24;100.00;98918.38;6220086;23;20387;-87
2023/11/11 16:52:28;;;;;;;;;;;;;;;7.38;100.00;98912.47;6247348;23;20390;-89
2023/11/11 16:54:58;;;;;;;;;;;;;;;7.50;100.00;98913.72;6246388;23;19916;-91
2023/11/11 16:57:44;;;;;;;;;;;;;;;7.61;100.00;98923.78;6220836;23;20353;-90
2023/11/11 17:00:17;;;;;;;;;;;;;;;7.72;100.00;98918.03;6170660;23;20002;-93
2023/11/11 17:02:45;;;;;;;;;;;;;;;7.82;100.00;98912.28;6220085;23;19938;-91
2023/11/11 17:05:11;;;;;;;;;;;;;;;7.90;100.00;98925.13;6246609;23;19918;-90
2023/11/11 17:07:37;;;;;;;;;;;;;;;8.21;100.00;98913.16;6245117;23;19912;-91
2023/11/11 17:10:04;;;;;;;;;;;;;;;8.16;100.00;98912.50;6220765;23;20032;-89
2023/11/11 17:12:30;;;;;;;;;;;;;;;8.24;100.00;98922.72;6246798;23;20343;-91
2023/11/11 17:14:57;;;;;;;;;;;;;;;8.28;100.00;98917.22;6220629;23;19915;-89
2023/11/11 17:17:25;;;;;;;;;;;;;;;8.36;100.00;98920.34;6219679;23;19915;-93
2023/11/11 17:22:29;;;;;;;;;;;;;;;8.50;100.00;98913.56;6225447;22;20003;-94
2023/11/11 17:24:54;;;;;;;;;;;;;;;8.54;100.00;98920.44;6219455;23;19966;-84
2023/11/11 17:27:43;;;;;;;;;;;;;;;8.60;100.00;98914.84;6247769;23;19916;-93
2023/11/11 17:30:10;;;;;;;;;;;;;;;8.65;100.00;98912.84;6247605;23;19912;-91
2023/11/11 17:32:35;;;;;;;;;;;;;;;8.70;100.00;98915.25;6249054;23;19911;-91
2023/11/11 17:35:00;;;;;;;;;;;;;;;8.73;100.00;98918.59;6247194;23;19961;-91
2023/11/11 17:37:26;;;;;;;;;;;;;;;8.77;100.00;98916.66;6219515;23;19912;-90
2023/11/11 17:39:51;;;;;;;;;;;;;;;8.82;100.00;98917.31;6246012;23;20041;-90
2023/11/11 17:42:19;;;;;;;;;;;;;;;9.02;100.00;98926.00;6220951;23;20316;-92
2023/11/11 17:44:44;;;;;;;;;;;;;;;7.38;100.00;98930.06;6220496;23;19935;-88
2023/11/11 17:49:53;;;;;;;;;;;;;;;6.33;100.00;98931.72;6274401;22;19919;-94
2023/11/11 17:52:19;;;;;;;;;;;;;;;6.18;100.00;98938.47;6277692;22;19916;-88
2023/11/11 17:54:48;;;;;;;;;;;;;;;6.04;100.00;98943.38;6276094;22;19908;-89
2023/11/11 17:57:17;;;;;;;;;;;;;;;5.91;100.00;98943.81;6245800;22;20267;-92
2023/11/11 17:59:43;;;;;;;;;;;;;;;5.86;100.00;98940.50;6249323;22;19911;-90
2023/11/11 18:02:09;;;;;;;;;;;;;;;5.78;100.00;98934.66;6249985;22;19919;-91
2023/11/11 18:04:35;;;;;;;;;;;;;;;5.73;100.00;98936.63;6250082;22;19969;-81
2023/11/11 18:07:00;;;;;;;;;;;;;;;5.70;100.00;98929.69;6275267;22;19915;-84
2023/11/11 18:09:26;;;;;;;;;;;;;;;5.58;100.00;98933.59;6275541;22;19965;-92
2023/11/11 18:11:51;;;;;;;;;;;;;;;5.49;100.00;98933.97;6249858;22;20212;-93
2023/11/11 18:14:40;;;;;;;;;;;;;;;5.42;100.00;98932.44;6277280;22;19918;-90
2023/11/11 18:17:05;;;;;;;;;;;;;;;10.15;100.00;98921.00;6231037;22;20026;-81
2023/11/11 18:19:30;;;;;;;;;;;;;;;9.27;100.00;98923.84;6276738;22;19951;-80
2023/11/11 18:21:56;;;;;;;;;;;;;;;9.17;100.00;98934.94;6276595;22;19911;-88
2023/11/11 18:24:21;;;;;;;;;;;;;;;10.42;100.00;98931.88;6275441;22;19955;-81
2023/11/11 18:26:46;;;;;;;;;;;;;;;10.62;100.00;98922.81;6276699;22;19961;-88
2023/11/11 18:29:12;;;;;;;;;;;;;;;10.82;100.00;98923.47;6274727;22;19915;-84
2023/11/11 18:31:37;;;;;;;;;;;;;;;10.59;100.00;98922.13;6276357;22;19916;-81
2023/11/11 18:34:02;;;;;;;;;;;;;;;9.80;100.00;98923.75;6276338;22;20209;-82
2023/11/11 18:36:29;;;;;;;;;;;;;;;10.65;100.00;98917.31;6276459;22;19911;-83
2023/11/11 18:38:58;;;;;;;;;;;;;;;10.76;100.00;98914.06;6273803;22;19930;-81
2023/11/11 18:41:25;;;;;;;;;;;;;;;10.80;100.00;98920.91;6276310;22;20294;-80
2023/11/11 18:43:50;;;;;;;;;;;;;;;10.06;100.00;98921.50;6275391;22;20020;-81
2023/11/11 18:46:16;;;;;;;;;;;;;;;9.84;100.00;98919.16;6276000;22;19915;-91
2023/11/11 18:48:41;;;;;;;;;;;;;;;9.76;100.00;98924.84;6242773;22;19968;-83
2023/11/11 18:51:08;;;;;;;;;;;;;;;9.72;100.00;98921.50;6275615;22;19915;-80
2023/11/11 18:53:33;;;;;;;;;;;;;;;9.64;100.00;98918.44;6274241;22;20066;-82
2023/11/11 18:55:58;;;;;;;;;;;;;;;9.56;100.00;98918.81;6247642;22;19975;-82
2023/11/11 18:58:23;;;;;;;;;;;;;;;9.53;100.00;98929.56;6274370;22;19945;-83
2023/11/11 19:00:49;;;;;;;;;;;;;;;10.31;100.00;98929.78;6275734;22;19911;-82
2023/11/11 19:03:14;;;;;;;;;;;;;;;11.39;100.00;98910.38;6275484;22;19919;-81
2023/11/11 19:05:39;;;;;;;;;;;;;;;11.22;100.00;98924.66;6274558;22;19943;-87
2023/11/11 19:08:05;;;;;;;;;;;;;;;11.03;100.00;98916.06;6246629;22;19915;-81
2023/11/11 19:10:31;;;;;;;;;;;;;;;11.37;100.00;98920.22;6276087;22;19915;-81
2023/11/11 19:12:57;;;;;;;;;;;;;;;11.28;100.00;98931.41;6275179;22;19911;-79
2023/11/11 19:15:23;;;;;;;;;;;;;;;10.70;100.00;98927.66;6275558;22;20451;-79
2023/11/11 19:17:48;;;;;;;;;;;;;;;10.10;100.00;98941.53;6248605;22;19972;-81
2023/11/11 19:20:14;;;;;;;;;;;;;;;10.00;100.00;98947.38;6275379;22;19911;-81
2023/11/11 19:22:43;;;;;;;;;;;;;;;9.99;100.00;98956.22;6247047;22;20243;-89
2023/11/11 19:25:08;;;;;;;;;;;;;;;9.99;100.00;98961.53;6248383;22;19915;-86
2023/11/11 19:27:36;;;;;;;;;;;;;;;10.00;100.00;98957.94;6248203;22;19911;-82
2023/11/11 19:30:01;;;;;;;;;;;;;;;10.03;100.00;98956.06;6275130;22;19915;-82
2023/11/11 19:32:26;;;;;;;;;;;;;;;10.06;100.00;98950.59;6275566;22;19938;-93
2023/11/11 19:34:52;;;;;;;;;;;;;;;10.07;100.00;98957.59;6274822;22;19958;-80
2023/11/11 19:37:17;;;;;;;;;;;;;;;10.07;100.00;98958.47;6275303;22;19919;-81
2023/11/11 19:39:42;;;;;;;;;;;;;;;10.29;100.00;98952.00;6246723;22;20358;-82
2023/11/11 19:42:09;;;;;;;;;;;;;;;10.44;100.00;98955.63;6274900;22;19938;-85
2023/11/11 19:44:34;;;;;;;;;;;;;;;10.46;100.00;98953.75;6275243;22;19911;-82
2023/11/11 19:46:59;;;;;;;;;;;;;;;10.49;100.00;98953.59;6275923;22;20393;-82
2023/11/11 19:49:24;;;;;;;;;;;;;;;10.45;100.00;98957.31;6275258;22;19919;-82
2023/11/11 19:51:50;;;;;;;;;;;;;;;10.31;100.00;98952.78;6275250;22;19911;-80
2023/11/11 19:54:16;;;;;;;;;;;;;;;10.26;100.00;98953.03;6274186;22;19911;-85
2023/11/11 19:56:42;;;;;;;;;;;;;;;10.22;100.00;98951.47;6248494;22;19915;-82